METAR Formatted Surface Weather Observation
Issued by NWS Melbourne, FL

Home | Current Version | Previous Version | Text Only | Print | Product List | Glossary On
Versions: 1 2 3 4 5
000
SAUS42 KMLB 231155
MTRMCO
METAR KMCO 231153Z 36007KT 10SM FEW015 SCT250 17/14 A3000 RMK AO2
SLP158 T01670144 10189 20161 53009



USA.gov is the U.S. government's official web portal to all federal, state and local government web resources and services.